Time;durP1;ratioP1;P1;durP2;ratioP2;P2;SDS_P1;SDS_P2;PMS_P1;PMS_P2;Temp;Humidity;BMP_temperature;BMP_pressure;BME280_temperature;BME280_humidity;BME280_pressure;Samples;Min_cycle;Max_cycle;Signal;HPM_P1;HPM_P2
2023/08/06 00:02:21;;;;;;;6.93;4.10;;;16.80;99.90;;;;;;5016106;28;20116;-67
2023/08/06 00:04:47;;;;;;;6.18;3.80;;;16.70;99.90;;;;;;5018991;28;20029;-68
2023/08/06 00:07:12;;;;;;;6.13;3.50;;;16.80;99.90;;;;;;5011524;28;20022;-68
2023/08/06 00:09:38;;;;;;;8.63;3.63;;;16.90;99.90;;;;;;4990917;28;20037;-68
2023/08/06 00:12:04;;;;;;;7.20;3.30;;;17.00;99.90;;;;;;4993000;28;20120;-68
2023/08/06 00:14:29;;;;;;;5.30;3.80;;;17.10;99.90;;;;;;4983295;28;20027;-69
2023/08/06 00:16:55;;;;;;;4.30;3.65;;;17.10;99.90;;;;;;4981267;28;20061;-68
2023/08/06 00:19:20;;;;;;;4.43;3.03;;;17.20;99.90;;;;;;5000903;28;20026;-69
2023/08/06 00:21:46;;;;;;;5.47;3.30;;;17.00;99.90;;;;;;4987537;28;20031;-68
2023/08/06 00:24:25;;;;;;;6.93;3.80;;;17.00;99.90;;;;;;4993526;28;20018;-68
2023/08/06 00:26:51;;;;;;;4.25;3.40;;;16.80;99.90;;;;;;4998687;28;20026;-68
2023/08/06 00:29:18;;;;;;;8.82;3.22;;;16.70;99.90;;;;;;4998733;28;20177;-68
2023/08/06 00:31:44;;;;;;;6.07;3.67;;;16.70;99.90;;;;;;4983336;28;20161;-68
2023/08/06 00:34:09;;;;;;;5.38;3.38;;;16.90;99.90;;;;;;4993894;28;20062;-68
2023/08/06 00:36:37;;;;;;;5.03;3.58;;;17.00;99.90;;;;;;4995168;28;20117;-68
2023/08/06 00:39:03;;;;;;;9.43;4.30;;;17.10;99.90;;;;;;4995422;28;20023;-68
2023/08/06 00:41:28;;;;;;;4.85;3.45;;;16.80;99.90;;;;;;4995613;28;20054;-68
2023/08/06 00:43:54;;;;;;;9.20;3.50;;;16.70;99.90;;;;;;4995163;28;20050;-68
2023/08/06 00:46:22;;;;;;;4.57;3.65;;;16.80;99.90;;;;;;4980948;28;20118;-68
2023/08/06 00:48:55;;;;;;;7.35;3.40;;;16.60;99.90;;;;;;4984516;28;20038;-68
2023/08/06 00:51:22;;;;;;;4.85;3.00;;;16.80;99.90;;;;;;5014317;28;20035;-68
2023/08/06 00:53:58;;;;;;;7.55;3.70;;;16.80;99.90;;;;;;4999066;28;20029;-68
2023/08/06 00:56:25;;;;;;;7.70;3.63;;;16.90;99.90;;;;;;4999085;28;20084;-68
2023/08/06 00:58:50;;;;;;;6.82;4.00;;;16.70;99.90;;;;;;4998895;28;20026;-68
2023/08/06 01:01:16;;;;;;;5.10;3.42;;;16.60;99.90;;;;;;4998120;28;20029;-68
2023/08/06 01:03:41;;;;;;;3.38;2.83;;;16.50;99.90;;;;;;4998652;28;20027;-68
2023/08/06 01:06:07;;;;;;;9.30;4.50;;;16.80;99.90;;;;;;4998330;28;20034;-68
2023/08/06 01:08:58;;;;;;;7.70;4.45;;;16.80;99.90;;;;;;4997423;28;20030;-68
2023/08/06 01:11:57;;;;;;;6.85;3.70;;;16.50;99.90;;;;;;4997916;28;20030;-68
2023/08/06 01:14:35;;;;;;;7.00;3.67;;;16.70;99.90;;;;;;4997752;28;20061;-68
2023/08/06 01:17:02;;;;;;;5.35;3.95;;;16.60;99.90;;;;;;4998996;28;20027;-68
2023/08/06 01:19:28;;;;;;;6.75;4.45;;;16.60;99.90;;;;;;4998138;28;20022;-68
2023/08/06 01:21:53;;;;;;;4.57;3.95;;;16.40;99.90;;;;;;4998773;28;20071;-68
2023/08/06 01:24:19;;;;;;;6.28;4.20;;;16.40;99.90;;;;;;4994412;28;20027;-68
2023/08/06 01:27:11;;;;;;;6.70;3.97;;;16.40;99.90;;;;;;4994719;28;20039;-68
2023/08/06 01:29:52;;;;;;;6.30;4.07;;;16.30;99.90;;;;;;4978947;28;20031;-68
2023/08/06 01:32:20;;;;;;;5.53;3.88;;;16.30;99.90;;;;;;4978113;28;20022;-68
2023/08/06 01:34:47;;;;;;;8.02;3.92;;;16.30;99.90;;;;;;4977970;28;20050;-68
2023/08/06 01:37:13;;;;;;;4.82;3.35;;;16.30;99.90;;;;;;4977925;28;20023;-68
2023/08/06 01:39:42;;;;;;;8.75;4.55;;;16.40;99.90;;;;;;4977738;28;20034;-68
2023/08/06 01:42:08;;;;;;;6.95;3.88;;;16.40;99.90;;;;;;4978093;28;20019;-68
2023/08/06 01:44:33;;;;;;;4.85;4.07;;;16.60;99.90;;;;;;4978583;28;20031;-68
2023/08/06 01:46:59;;;;;;;6.70;3.80;;;16.50;99.90;;;;;;4979081;28;20031;-68
2023/08/06 01:49:24;;;;;;;7.38;3.80;;;16.50;99.90;;;;;;4977838;28;20118;-68
2023/08/06 01:51:50;;;;;;;4.60;3.45;;;16.70;99.90;;;;;;4977801;28;20051;-68
2023/08/06 01:54:15;;;;;;;6.43;3.60;;;16.80;99.90;;;;;;4977781;28;20050;-68
2023/08/06 01:56:41;;;;;;;5.68;3.53;;;16.90;99.90;;;;;;4979019;28;20034;-68
2023/08/06 01:59:06;;;;;;;5.28;3.58;;;16.80;99.90;;;;;;4995672;28;20015;-68
2023/08/06 02:01:32;;;;;;;4.32;3.45;;;16.70;99.90;;;;;;4997176;28;20018;-68
2023/08/06 02:03:57;;;;;;;7.45;4.00;;;16.50;99.90;;;;;;4997837;28;20030;-68
2023/08/06 02:06:23;;;;;;;5.85;4.18;;;16.40;99.90;;;;;;4997417;28;20038;-68
2023/08/06 02:08:48;;;;;;;6.45;4.65;;;16.50;99.90;;;;;;4996971;28;20023;-68
2023/08/06 02:11:14;;;;;;;5.80;4.40;;;16.50;99.90;;;;;;4997703;28;20023;-68
2023/08/06 02:13:39;;;;;;;5.68;3.60;;;16.40;99.90;;;;;;4995931;28;20030;-68
2023/08/06 02:16:08;;;;;;;4.72;3.72;;;16.30;99.90;;;;;;4977479;28;20030;-68
2023/08/06 02:18:34;;;;;;;6.82;3.95;;;16.40;99.90;;;;;;4977737;28;20105;-68
2023/08/06 02:20:59;;;;;;;5.63;3.92;;;16.50;99.90;;;;;;4977303;28;20070;-68
2023/08/06 02:23:26;;;;;;;6.93;3.58;;;16.50;99.90;;;;;;4977280;28;20031;-68
2023/08/06 02:26:02;;;;;;;7.65;3.75;;;16.70;99.90;;;;;;4977346;28;20042;-68
2023/08/06 02:28:31;;;;;;;4.43;3.35;;;16.70;99.90;;;;;;4977312;28;20026;-68
2023/08/06 02:30:57;;;;;;;4.95;3.22;;;16.70;99.90;;;;;;4977308;28;20031;-68
2023/08/06 02:33:22;;;;;;;5.35;3.78;;;16.70;99.90;;;;;;4977176;28;20089;-68
2023/08/06 02:35:48;;;;;;;4.47;3.40;;;16.90;99.90;;;;;;4977151;28;20027;-68
2023/08/06 02:38:14;;;;;;;6.57;4.00;;;16.80;99.90;;;;;;4978227;28;20031;-68
2023/08/06 02:40:46;;;;;;;5.63;3.15;;;16.50;99.90;;;;;;4977402;28;20117;-68
2023/08/06 02:43:12;;;;;;;10.38;3.83;;;16.40;99.90;;;;;;4993301;28;20054;-68
2023/08/06 02:45:37;;;;;;;6.30;3.03;;;16.50;99.90;;;;;;4978028;28;20058;-68
2023/08/06 02:48:03;;;;;;;4.97;4.03;;;16.70;99.90;;;;;;4996470;28;20027;-68
2023/08/06 02:50:29;;;;;;;6.28;3.55;;;16.60;99.90;;;;;;4996294;28;20022;-68
2023/08/06 02:52:54;;;;;;;4.95;3.40;;;16.60;99.90;;;;;;4996762;28;20073;-68
2023/08/06 02:55:20;;;;;;;7.13;4.00;;;16.50;99.90;;;;;;4996792;28;20132;-68
2023/08/06 02:57:45;;;;;;;4.85;4.18;;;16.40;99.90;;;;;;4998736;28;20053;-68
2023/08/06 03:00:11;;;;;;;6.43;3.55;;;16.50;99.90;;;;;;5001476;28;20023;-68
2023/08/06 03:02:37;;;;;;;5.20;3.47;;;16.50;99.90;;;;;;5001607;28;20026;-68
2023/08/06 03:05:03;;;;;;;7.10;3.75;;;16.40;99.90;;;;;;4994911;28;20050;-68
2023/08/06 03:07:29;;;;;;;11.85;3.55;;;16.30;99.90;;;;;;4981602;28;20033;-68
2023/08/06 03:09:54;;;;;;;6.35;3.17;;;16.40;99.90;;;;;;4997017;28;20118;-68
2023/08/06 03:12:20;;;;;;;4.25;3.20;;;16.50;99.90;;;;;;4997062;28;20027;-69
2023/08/06 03:14:46;;;;;;;3.40;2.97;;;16.70;99.90;;;;;;4996797;28;20027;-68
2023/08/06 03:17:11;;;;;;;4.20;3.53;;;16.90;99.90;;;;;;4996892;28;20027;-68
2023/08/06 03:19:37;;;;;;;3.58;3.13;;;16.80;99.90;;;;;;4997618;28;20027;-68
2023/08/06 03:22:02;;;;;;;8.77;3.45;;;17.00;99.90;;;;;;5013986;28;20019;-68
2023/08/06 03:24:28;;;;;;;6.90;3.65;;;17.00;99.90;;;;;;5001113;28;20111;-68
2023/08/06 03:26:53;;;;;;;5.30;3.45;;;16.70;99.90;;;;;;5000045;28;20129;-69
2023/08/06 03:29:19;;;;;;;6.18;3.72;;;16.50;99.90;;;;;;4999910;28;20054;-68
2023/08/06 03:31:45;;;;;;;6.53;3.75;;;16.40;99.90;;;;;;4999879;28;20034;-68
2023/08/06 03:34:11;;;;;;;7.85;3.78;;;16.40;99.90;;;;;;4999781;28;20027;-68
2023/08/06 03:36:36;;;;;;;7.63;3.85;;;16.30;99.90;;;;;;4996051;28;20081;-68
2023/08/06 03:39:02;;;;;;;8.57;4.25;;;16.30;99.90;;;;;;4996460;28;20109;-68
2023/08/06 03:41:27;;;;;;;7.50;4.70;;;16.30;99.90;;;;;;4981094;28;20029;-68
2023/08/06 03:43:53;;;;;;;9.07;4.50;;;16.10;99.90;;;;;;4997313;28;20027;-68
2023/08/06 03:46:18;;;;;;;9.15;4.13;;;16.00;99.90;;;;;;4980842;28;20062;-68
2023/08/06 03:48:44;;;;;;;5.25;3.92;;;16.00;99.90;;;;;;4996150;28;20053;-68
2023/08/06 03:51:09;;;;;;;5.78;3.80;;;16.00;99.90;;;;;;4987732;28;20034;-68
2023/08/06 03:53:35;;;;;;;11.43;4.13;;;15.90;99.90;;;;;;5000448;28;20034;-68
2023/08/06 03:56:00;;;;;;;7.05;3.85;;;15.80;99.90;;;;;;5000179;28;20030;-68
2023/08/06 03:58:26;;;;;;;6.05;3.72;;;15.90;99.90;;;;;;5000463;28;20109;-68
2023/08/06 04:01:02;;;;;;;10.13;4.20;;;15.80;99.90;;;;;;5000284;28;20022;-68
2023/08/06 04:03:28;;;;;;;4.90;3.58;;;15.80;99.90;;;;;;5000720;28;20027;-68
2023/08/06 04:05:54;;;;;;;7.40;4.03;;;15.80;99.90;;;;;;4998826;28;20034;-68
2023/08/06 04:08:20;;;;;;;12.60;4.13;;;15.80;99.90;;;;;;4980333;28;20030;-68
2023/08/06 04:10:48;;;;;;;9.50;3.92;;;15.80;99.90;;;;;;4980611;28;20106;-68
2023/08/06 04:13:14;;;;;;;8.38;4.53;;;15.80;99.90;;;;;;4980424;28;20089;-68
2023/08/06 04:15:39;;;;;;;6.43;3.95;;;15.70;99.90;;;;;;4979428;28;20078;-68
2023/08/06 04:18:05;;;;;;;6.35;3.95;;;15.80;99.90;;;;;;4996398;28;20023;-68
2023/08/06 04:20:30;;;;;;;9.60;3.97;;;15.70;99.90;;;;;;4979654;28;20038;-68
2023/08/06 04:23:05;;;;;;;4.85;3.42;;;15.70;99.90;;;;;;4990521;28;20041;-68
2023/08/06 04:25:31;;;;;;;7.88;4.03;;;15.70;99.90;;;;;;4998708;28;20041;-68
2023/08/06 04:27:56;;;;;;;8.48;3.53;;;15.80;99.90;;;;;;4999793;28;20034;-68
2023/08/06 04:30:22;;;;;;;5.60;3.92;;;15.70;99.90;;;;;;4999863;28;20109;-68
2023/08/06 04:32:49;;;;;;;7.25;4.00;;;15.70;99.90;;;;;;4998722;28;20099;-68
2023/08/06 04:35:15;;;;;;;6.20;3.55;;;15.70;99.90;;;;;;4998498;28;20026;-68
2023/08/06 04:37:41;;;;;;;5.03;3.75;;;15.70;99.90;;;;;;4998015;28;20033;-68
2023/08/06 04:40:07;;;;;;;6.00;3.90;;;15.60;99.90;;;;;;4999552;28;20027;-68
2023/08/06 04:42:33;;;;;;;6.47;4.00;;;15.60;99.90;;;;;;4998568;28;20058;-68
2023/08/06 04:44:58;;;;;;;5.40;3.60;;;15.70;99.90;;;;;;4999387;28;20034;-68
2023/08/06 04:47:25;;;;;;;5.65;4.30;;;15.70;99.90;;;;;;4998515;28;20033;-68
2023/08/06 04:49:51;;;;;;;7.05;4.15;;;15.70;99.90;;;;;;4998411;28;20029;-68
2023/08/06 04:52:16;;;;;;;6.85;3.47;;;15.70;99.90;;;;;;4998980;28;20060;-68
2023/08/06 04:54:43;;;;;;;6.82;3.42;;;15.80;99.90;;;;;;4994976;28;20050;-68
2023/08/06 04:57:09;;;;;;;7.45;3.97;;;15.90;99.90;;;;;;4995581;28;20027;-68
2023/08/06 04:59:35;;;;;;;6.82;3.80;;;16.00;99.90;;;;;;4995031;28;20023;-68
2023/08/06 05:02:01;;;;;;;6.22;4.22;;;15.90;99.90;;;;;;4995377;28;20031;-68
2023/08/06 05:04:27;;;;;;;9.02;3.90;;;16.00;99.90;;;;;;4994919;28;20094;-68
2023/08/06 05:06:52;;;;;;;9.35;3.92;;;16.00;99.90;;;;;;4994999;28;20023;-68
2023/08/06 05:09:18;;;;;;;8.00;3.80;;;16.20;99.90;;;;;;4985206;28;20057;-68
2023/08/06 05:11:43;;;;;;;5.75;3.78;;;16.20;99.90;;;;;;4978937;28;20027;-68
2023/08/06 05:14:09;;;;;;;11.52;4.20;;;16.20;99.90;;;;;;4978445;28;20027;-68
2023/08/06 05:16:34;;;;;;;5.93;3.65;;;16.20;99.90;;;;;;4994901;28;20069;-68
2023/08/06 05:19:00;;;;;;;7.13;4.60;;;16.30;99.90;;;;;;4978601;28;20035;-68
2023/08/06 05:21:25;;;;;;;7.65;3.92;;;16.30;99.90;;;;;;4977807;28;20027;-71
2023/08/06 05:23:51;;;;;;;6.85;3.50;;;16.20;99.90;;;;;;4978396;28;20035;-71
2023/08/06 05:26:19;;;;;;;9.65;4.25;;;16.10;99.90;;;;;;5035397;23;20053;-66
2023/08/06 05:28:45;;;;;;;11.65;3.33;;;16.20;99.90;;;;;;5018139;28;20033;-66
2023/08/06 05:31:11;;;;;;;7.72;4.35;;;16.20;99.90;;;;;;5017832;28;20030;-66
2023/08/06 05:33:36;;;;;;;4.85;3.45;;;16.10;99.90;;;;;;5017214;28;20029;-66
2023/08/06 05:36:02;;;;;;;9.07;3.90;;;16.10;99.90;;;;;;5017274;28;20034;-66
2023/08/06 05:38:29;;;;;;;5.50;3.88;;;16.00;99.90;;;;;;5017341;28;20022;-66
2023/08/06 05:40:55;;;;;;;6.80;3.50;;;16.10;99.90;;;;;;5011093;28;20042;-66
2023/08/06 05:43:20;;;;;;;5.88;3.38;;;16.30;99.90;;;;;;5014041;28;20022;-66
2023/08/06 05:45:46;;;;;;;8.70;3.70;;;16.20;99.90;;;;;;4997240;28;20018;-66
2023/08/06 05:48:12;;;;;;;7.35;3.45;;;16.30;99.90;;;;;;5013778;28;20026;-66
2023/08/06 05:50:37;;;;;;;5.40;3.25;;;16.20;99.90;;;;;;4998327;28;20142;-66
2023/08/06 05:53:03;;;;;;;4.80;3.20;;;16.40;99.90;;;;;;4998073;28;20101;-66
2023/08/06 05:55:29;;;;;;;5.50;3.00;;;16.30;99.90;;;;;;4997903;28;20054;-66
2023/08/06 05:57:54;;;;;;;8.48;3.65;;;16.40;99.90;;;;;;5008188;28;20030;-66
2023/08/06 06:00:21;;;;;;;5.03;2.78;;;16.30;99.90;;;;;;5016741;28;20088;-66
2023/08/06 06:02:47;;;;;;;5.32;3.00;;;16.30;99.90;;;;;;5016727;28;20018;-66
2023/08/06 06:05:12;;;;;;;3.75;2.70;;;16.50;99.90;;;;;;5016947;28;20022;-66
2023/08/06 06:07:38;;;;;;;3.90;3.00;;;16.30;99.90;;;;;;5017811;28;20026;-66
2023/08/06 06:10:04;;;;;;;4.15;3.00;;;16.30;99.90;;;;;;5016521;28;20034;-66
2023/08/06 06:12:29;;;;;;;5.03;3.00;;;16.40;99.90;;;;;;5016245;28;20025;-66
2023/08/06 06:14:55;;;;;;;4.70;2.72;;;16.40;99.90;;;;;;5017255;28;20032;-67
2023/08/06 06:17:21;;;;;;;7.88;3.20;;;16.60;99.90;;;;;;5016532;28;20029;-66
2023/08/06 06:19:46;;;;;;;3.90;3.38;;;16.50;99.90;;;;;;5017437;28;20030;-66
2023/08/06 06:22:12;;;;;;;8.43;3.20;;;16.50;99.90;;;;;;5016565;28;20076;-67
2023/08/06 06:24:37;;;;;;;8.20;3.08;;;16.70;99.90;;;;;;5016148;28;20022;-66
2023/08/06 06:27:03;;;;;;;8.77;3.15;;;16.60;99.90;;;;;;5016604;28;20050;-66
2023/08/06 06:29:29;;;;;;;6.43;2.78;;;16.70;99.90;;;;;;5016957;28;20033;-66
2023/08/06 06:31:55;;;;;;;6.50;3.20;;;16.70;99.90;;;;;;5016352;28;20022;-66
2023/08/06 06:34:20;;;;;;;3.85;2.53;;;16.70;99.90;;;;;;5016288;28;20026;-66
2023/08/06 06:36:46;;;;;;;5.40;2.65;;;16.70;99.90;;;;;;5017154;28;20029;-66
2023/08/06 06:39:11;;;;;;;3.40;2.10;;;16.80;99.90;;;;;;5017512;28;20032;-67
2023/08/06 06:41:37;;;;;;;5.82;2.85;;;16.90;99.90;;;;;;5016307;28;20022;-66
2023/08/06 06:44:03;;;;;;;6.90;2.45;;;16.90;99.90;;;;;;5017048;28;20022;-66
2023/08/06 06:46:28;;;;;;;4.35;2.05;;;17.00;99.90;;;;;;5016197;28;20062;-67
2023/08/06 06:48:54;;;;;;;6.75;2.63;;;17.00;99.90;;;;;;5016932;28;20026;-67
2023/08/06 06:51:19;;;;;;;5.20;2.50;;;16.70;99.90;;;;;;5032795;28;20022;-66
2023/08/06 06:53:45;;;;;;;6.25;3.38;;;16.80;99.90;;;;;;5017578;28;20041;-66
2023/08/06 06:56:10;;;;;;;3.47;2.17;;;16.70;99.90;;;;;;5015968;28;20127;-66
2023/08/06 06:58:36;;;;;;;4.93;2.63;;;16.50;99.90;;;;;;5016160;28;20022;-66
2023/08/06 07:01:02;;;;;;;3.90;2.38;;;16.50;99.90;;;;;;5008779;28;20056;-66
2023/08/06 07:03:27;;;;;;;5.47;2.40;;;16.50;99.90;;;;;;5012824;28;20022;-66
2023/08/06 07:05:58;;;;;;;6.88;2.50;;;16.50;99.90;;;;;;4996484;28;20026;-66
2023/08/06 07:08:24;;;;;;;6.47;2.43;;;16.50;99.90;;;;;;4997646;28;20022;-66
2023/08/06 07:10:49;;;;;;;3.22;1.83;;;16.50;99.90;;;;;;4997548;28;20258;-66
2023/08/06 07:13:16;;;;;;;3.08;2.00;;;16.60;99.90;;;;;;4997488;28;20030;-66
2023/08/06 07:15:57;;;;;;;3.80;1.75;;;16.70;99.90;;;;;;4998640;28;20026;-66
2023/08/06 07:18:23;;;;;;;6.13;2.17;;;16.60;99.90;;;;;;5016860;28;20030;-66
2023/08/06 07:20:53;;;;;;;1.90;1.70;;;16.60;99.90;;;;;;5016096;28;20074;-66
2023/08/06 07:23:21;;;;;;;2.42;1.50;;;16.60;99.90;;;;;;5016740;28;20022;-66
2023/08/06 07:25:47;;;;;;;4.57;1.40;;;16.70;99.90;;;;;;5016586;28;20029;-66
2023/08/06 07:28:13;;;;;;;3.17;1.20;;;16.80;99.90;;;;;;5016664;28;20071;-66
2023/08/06 07:30:40;;;;;;;5.47;1.20;;;16.80;99.90;;;;;;5015844;28;20041;-66
2023/08/06 07:33:06;;;;;;;0.73;0.60;;;17.00;99.90;;;;;;5015469;28;20030;-66
2023/08/06 07:35:31;;;;;;;0.88;0.60;;;17.00;99.90;;;;;;5015653;28;20076;-66
2023/08/06 07:37:57;;;;;;;2.22;1.20;;;17.00;99.90;;;;;;5016935;28;20049;-66
2023/08/06 07:40:22;;;;;;;7.70;1.10;;;16.90;99.90;;;;;;5016101;28;20030;-66
2023/08/06 07:42:48;;;;;;;1.25;0.85;;;16.90;99.90;;;;;;5016664;28;20021;-67
2023/08/06 07:45:14;;;;;;;1.50;0.90;;;16.90;99.90;;;;;;5019407;28;20022;-67
2023/08/06 07:47:40;;;;;;;0.43;0.38;;;16.90;99.90;;;;;;5019333;28;20032;-67
2023/08/06 07:50:06;;;;;;;0.50;0.43;;;16.90;99.90;;;;;;5018886;28;20030;-66
2023/08/06 07:52:32;;;;;;;1.13;0.60;;;16.90;99.90;;;;;;5034391;28;20168;-66
2023/08/06 07:54:58;;;;;;;0.57;0.57;;;17.00;99.90;;;;;;5019861;28;20104;-67
2023/08/06 07:57:24;;;;;;;1.77;0.57;;;17.00;99.90;;;;;;5018522;28;20025;-66
2023/08/06 07:59:49;;;;;;;0.60;0.60;;;17.10;99.90;;;;;;5019906;28;20026;-66
2023/08/06 08:02:15;;;;;;;0.52;0.52;;;17.10;99.90;;;;;;5019818;28;20033;-66
2023/08/06 08:04:40;;;;;;;0.93;0.75;;;17.10;99.90;;;;;;5018819;28;20021;-67
2023/08/06 08:07:06;;;;;;;0.90;0.88;;;17.10;99.90;;;;;;5019394;28;20022;-66
2023/08/06 08:09:31;;;;;;;2.33;1.48;;;17.10;99.90;;;;;;5018960;28;20026;-67
2023/08/06 08:11:57;;;;;;;1.08;0.90;;;17.00;99.90;;;;;;5018843;28;20022;-67
2023/08/06 08:14:23;;;;;;;1.13;0.90;;;17.00;99.90;;;;;;5015272;28;20041;-67
2023/08/06 08:16:48;;;;;;;1.00;0.50;;;17.00;99.90;;;;;;5015675;28;20026;-67
2023/08/06 08:19:14;;;;;;;2.00;0.55;;;17.10;99.90;;;;;;5015335;28;20021;-67
2023/08/06 08:21:39;;;;;;;0.25;0.22;;;17.20;99.90;;;;;;5015900;28;20026;-67
2023/08/06 08:24:05;;;;;;;1.42;0.13;;;17.00;99.90;;;;;;5015952;28;20034;-67
2023/08/06 08:26:31;;;;;;;0.40;0.30;;;16.80;99.90;;;;;;5015533;28;20042;-67
2023/08/06 08:29:09;;;;;;;1.20;0.32;;;16.60;99.90;;;;;;5017936;28;20065;-67
2023/08/06 08:31:51;;;;;;;1.38;0.40;;;16.60;99.90;;;;;;5018497;28;20044;-67
2023/08/06 08:34:17;;;;;;;0.95;0.35;;;16.60;99.90;;;;;;5018329;28;20054;-67
2023/08/06 08:36:43;;;;;;;3.95;0.52;;;16.40;99.90;;;;;;5018122;28;20111;-67
2023/08/06 08:39:09;;;;;;;0.77;0.32;;;16.50;99.90;;;;;;5019664;28;20026;-67
2023/08/06 08:41:36;;;;;;;0.60;0.40;;;16.60;99.90;;;;;;5018161;28;20026;-67
2023/08/06 08:44:02;;;;;;;0.50;0.40;;;16.60;99.90;;;;;;5015964;28;20029;-67
2023/08/06 08:46:30;;;;;;;0.70;0.52;;;16.60;99.90;;;;;;5006974;28;20033;-67
2023/08/06 08:48:59;;;;;;;0.30;0.30;;;16.60;99.90;;;;;;5018093;28;20033;-67
2023/08/06 08:51:26;;;;;;;1.63;0.50;;;16.60;99.90;;;;;;5018774;28;20042;-67
2023/08/06 08:53:56;;;;;;;0.70;0.40;;;16.50;99.90;;;;;;5017777;28;20057;-67
2023/08/06 08:56:21;;;;;;;0.25;0.25;;;16.50;99.90;;;;;;5017265;28;20037;-67
2023/08/06 08:58:48;;;;;;;1.30;0.55;;;16.60;99.90;;;;;;5018258;28;20018;-67
2023/08/06 09:01:15;;;;;;;0.20;0.20;;;16.70;99.90;;;;;;5018624;28;20021;-66
2023/08/06 09:03:43;;;;;;;0.40;0.40;;;16.70;99.90;;;;;;5018378;28;20109;-66
2023/08/06 09:06:11;;;;;;;2.83;0.47;;;16.80;99.90;;;;;;5018003;28;20030;-66
2023/08/06 09:08:41;;;;;;;0.40;0.40;;;16.90;99.90;;;;;;5018257;28;20025;-67
2023/08/06 09:11:10;;;;;;;0.40;0.30;;;16.80;99.90;;;;;;5017590;28;20029;-66
2023/08/06 09:13:38;;;;;;;0.73;0.30;;;16.60;99.90;;;;;;5018555;28;20058;-67
2023/08/06 09:16:03;;;;;;;0.50;0.50;;;16.50;99.90;;;;;;5017385;28;20029;-68
2023/08/06 09:18:29;;;;;;;0.73;0.43;;;16.50;99.90;;;;;;5017470;28;20018;-66
2023/08/06 09:20:56;;;;;;;1.60;0.60;;;16.60;99.90;;;;;;5017566;28;20022;-67
2023/08/06 09:23:29;;;;;;;0.52;0.40;;;16.80;99.90;;;;;;5017398;28;20033;-67
2023/08/06 09:25:54;;;;;;;1.48;0.50;;;16.90;99.90;;;;;;5018347;28;20030;-67
2023/08/06 09:28:20;;;;;;;0.93;0.70;;;16.90;99.90;;;;;;5017436;28;20104;-67
2023/08/06 09:30:48;;;;;;;1.33;0.60;;;16.90;99.90;;;;;;5017339;28;20025;-67
2023/08/06 09:33:18;;;;;;;0.70;0.60;;;16.80;99.90;;;;;;5017183;28;20034;-68
2023/08/06 09:35:46;;;;;;;0.50;0.40;;;16.70;99.90;;;;;;5017091;28;20038;-66
2023/08/06 09:38:12;;;;;;;0.75;0.60;;;16.80;99.90;;;;;;5018009;28;20022;-66
2023/08/06 09:40:40;;;;;;;3.10;0.90;;;16.80;99.90;;;;;;5017476;28;20022;-66
2023/08/06 09:43:06;;;;;;;1.17;0.80;;;16.90;99.90;;;;;;5018168;28;20025;-67
2023/08/06 09:45:32;;;;;;;1.35;0.80;;;17.10;99.90;;;;;;5017139;28;20026;-67
2023/08/06 09:48:06;;;;;;;1.25;0.85;;;17.10;99.90;;;;;;5017801;28;20025;-67
2023/08/06 09:50:33;;;;;;;0.82;0.60;;;17.10;99.90;;;;;;5016262;28;20029;-67
2023/08/06 09:53:14;;;;;;;1.15;0.70;;;17.00;99.90;;;;;;5013895;28;20023;-66
2023/08/06 09:55:39;;;;;;;2.53;0.95;;;17.10;99.90;;;;;;4997621;28;20034;-66
2023/08/06 09:58:06;;;;;;;0.55;0.55;;;17.30;99.90;;;;;;4997469;28;20026;-67
2023/08/06 10:00:34;;;;;;;1.08;0.65;;;17.60;99.90;;;;;;4998427;28;20022;-67
2023/08/06 10:03:00;;;;;;;1.85;0.70;;;17.70;99.90;;;;;;4997111;28;20026;-67
2023/08/06 10:05:27;;;;;;;0.70;0.40;;;17.70;99.90;;;;;;4996702;28;20169;-67
2023/08/06 10:07:53;;;;;;;1.45;0.70;;;17.80;99.90;;;;;;5015419;28;20026;-67
2023/08/06 10:10:21;;;;;;;1.38;0.75;;;18.10;99.90;;;;;;5016917;28;20123;-67
2023/08/06 10:12:51;;;;;;;1.38;1.05;;;18.20;99.90;;;;;;5016640;28;20018;-67
2023/08/06 10:15:21;;;;;;;1.25;0.75;;;18.30;99.90;;;;;;5016846;28;20018;-67
2023/08/06 10:17:49;;;;;;;1.00;0.85;;;18.60;99.90;;;;;;5016493;28;20033;-66
2023/08/06 10:20:14;;;;;;;0.50;0.43;;;18.90;99.90;;;;;;5016685;28;20225;-67
2023/08/06 10:22:46;;;;;;;0.50;0.50;;;18.90;99.90;;;;;;5016397;28;20133;-67
2023/08/06 10:25:16;;;;;;;0.90;0.47;;;19.00;99.90;;;;;;5016511;28;20025;-67
2023/08/06 10:27:48;;;;;;;0.65;0.43;;;18.80;99.90;;;;;;5016921;28;20036;-66
2023/08/06 10:30:32;;;;;;;;;;;18.70;99.90;;;;;;5017571;28;20029;-68
2023/08/06 10:33:01;;;;;;;0.80;0.43;;;18.70;99.90;;;;;;5005230;28;19910;-67
2023/08/06 10:35:37;;;;;;;0.77;0.40;;;18.60;99.90;;;;;;5016379;28;20026;-67
2023/08/06 10:38:10;;;;;;;1.73;0.68;;;18.50;99.90;;;;;;5017123;28;20048;-67
2023/08/06 10:40:38;;;;;;;1.23;0.30;;;18.40;99.90;;;;;;5017107;28;20022;-67
2023/08/06 10:43:06;;;;;;;0.90;0.40;;;18.40;99.90;;;;;;5016285;28;20060;-67
2023/08/06 10:45:35;;;;;;;0.88;0.50;;;18.40;99.90;;;;;;5016007;28;20164;-67
2023/08/06 10:48:00;;;;;;;1.05;0.40;;;18.30;99.90;;;;;;5016867;28;20057;-66
2023/08/06 10:50:26;;;;;;;0.88;0.30;;;18.10;99.90;;;;;;5016006;28;20018;-67
2023/08/06 10:52:52;;;;;;;2.95;0.80;;;17.80;99.90;;;;;;5016415;28;20022;-66
2023/08/06 10:55:29;;;;;;;1.65;0.82;;;17.60;99.90;;;;;;5016965;28;20022;-67
2023/08/06 10:57:55;;;;;;;1.77;1.10;;;17.60;99.90;;;;;;5016488;28;20033;-68
2023/08/06 11:00:23;;;;;;;3.47;1.50;;;17.70;99.90;;;;;;5017344;28;20018;-68
2023/08/06 11:02:49;;;;;;;1.05;0.88;;;17.70;99.90;;;;;;5015257;28;20018;-68
2023/08/06 11:05:15;;;;;;;1.00;0.60;;;17.80;99.90;;;;;;5015874;28;20029;-68
2023/08/06 11:07:40;;;;;;;0.73;0.73;;;17.90;99.90;;;;;;5015931;28;20026;-68
2023/08/06 11:10:13;;;;;;;0.95;0.80;;;18.10;99.90;;;;;;5015945;28;20117;-68
2023/08/06 11:12:39;;;;;;;0.60;0.60;;;18.20;99.90;;;;;;5016167;28;20248;-68
2023/08/06 11:15:05;;;;;;;0.85;0.68;;;18.20;99.90;;;;;;5015936;28;20065;-68
2023/08/06 11:17:33;;;;;;;2.30;0.77;;;18.20;99.90;;;;;;5015072;28;20120;-68
2023/08/06 11:20:04;;;;;;;1.23;0.70;;;18.30;99.90;;;;;;5020518;28;20111;-68
2023/08/06 11:22:30;;;;;;;1.33;0.77;;;18.20;99.90;;;;;;5019947;28;20022;-68
2023/08/06 11:24:55;;;;;;;1.05;0.60;;;18.10;99.90;;;;;;5020080;28;20017;-67
2023/08/06 11:27:21;;;;;;;0.50;0.50;;;18.10;99.90;;;;;;5020979;28;20036;-67
2023/08/06 11:29:47;;;;;;;0.60;0.50;;;18.10;99.90;;;;;;5019923;28;20036;-67
2023/08/06 11:32:12;;;;;;;1.40;0.40;;;18.10;99.90;;;;;;5019527;28;20029;-67
2023/08/06 11:34:39;;;;;;;0.30;0.30;;;18.10;99.90;;;;;;5018115;28;20026;-67
2023/08/06 11:37:06;;;;;;;0.57;0.40;;;18.00;99.90;;;;;;5020159;28;20026;-67
2023/08/06 11:39:36;;;;;;;0.35;0.30;;;17.80;99.90;;;;;;5019528;28;20033;-67
2023/08/06 11:42:06;;;;;;;0.40;0.30;;;17.90;99.90;;;;;;5020002;28;20018;-67
2023/08/06 11:44:34;;;;;;;0.52;0.20;;;17.80;99.90;;;;;;5019140;28;20029;-67
2023/08/06 11:47:02;;;;;;;0.30;0.30;;;17.90;99.90;;;;;;5020219;28;20030;-67
2023/08/06 11:49:37;;;;;;;0.47;0.30;;;17.80;99.90;;;;;;5019203;28;20029;-67
2023/08/06 11:52:29;;;;;;;0.95;0.47;;;17.80;99.90;;;;;;5018585;28;20113;-67
2023/08/06 11:55:08;;;;;;;0.80;0.70;;;17.80;99.90;;;;;;5016286;28;20040;-67
2023/08/06 11:57:37;;;;;;;0.75;0.32;;;17.80;99.90;;;;;;5020087;28;20022;-67
2023/08/06 12:00:11;;;;;;;1.17;0.63;;;18.00;99.90;;;;;;5019022;28;20049;-67
2023/08/06 12:02:41;;;;;;;1.88;1.10;;;18.20;99.90;;;;;;5019694;28;20022;-67
2023/08/06 12:05:13;;;;;;;4.53;0.93;;;18.30;99.90;;;;;;5019925;28;20097;-67
2023/08/06 12:07:41;;;;;;;3.70;1.20;;;18.20;99.90;;;;;;5017607;28;20030;-67
2023/08/06 12:10:08;;;;;;;1.90;1.02;;;18.20;99.90;;;;;;5019027;28;20026;-67
2023/08/06 12:12:34;;;;;;;1.90;0.98;;;18.00;99.90;;;;;;5019053;28;20030;-67
2023/08/06 12:15:00;;;;;;;8.02;1.38;;;17.90;99.90;;;;;;5019366;28;20053;-67
2023/08/06 12:17:26;;;;;;;2.33;0.90;;;17.90;99.90;;;;;;5019808;28;20115;-67
2023/08/06 12:19:52;;;;;;;2.15;0.80;;;17.90;99.90;;;;;;5018951;28;20030;-67
2023/08/06 12:22:18;;;;;;;0.47;0.47;;;17.80;99.90;;;;;;5018107;28;20026;-67
2023/08/06 12:24:45;;;;;;;0.40;0.40;;;17.70;99.90;;;;;;5019367;28;20026;-67
2023/08/06 12:27:11;;;;;;;0.90;0.40;;;17.70;99.90;;;;;;5018670;28;20022;-67
2023/08/06 12:29:48;;;;;;;2.30;0.70;;;17.70;99.90;;;;;;5019702;28;20050;-67
2023/08/06 12:32:14;;;;;;;0.82;0.45;;;17.70;99.90;;;;;;5018336;28;20030;-66
2023/08/06 12:34:43;;;;;;;0.73;0.40;;;17.50;99.90;;;;;;5018302;28;20052;-66
2023/08/06 12:37:09;;;;;;;0.75;0.40;;;17.40;99.90;;;;;;5019471;28;20105;-67
2023/08/06 12:39:35;;;;;;;1.58;0.98;;;17.10;99.90;;;;;;5017500;28;20030;-66
2023/08/06 12:42:01;;;;;;;4.88;1.10;;;16.90;99.90;;;;;;5018313;28;20025;-66
2023/08/06 12:44:28;;;;;;;1.60;0.68;;;16.70;99.90;;;;;;5018066;28;20022;-66
2023/08/06 12:46:54;;;;;;;2.17;1.10;;;16.50;99.90;;;;;;5019072;28;20030;-67
2023/08/06 12:49:21;;;;;;;6.65;1.30;;;16.30;99.90;;;;;;5018098;28;20033;-67